Time,TemperatureF,DewpointF,PressureIn,WindDirection,WindDirectionDegrees,WindSpeedMPH,WindSpeedGustMPH,Humidity,HourlyPrecipIn,Conditions,Clouds,dailyrainin,SoftwareType,DateUTC
2013-10-08 07:52:00,41.0,18.0,-100.00,South,189,6.0,10.0,39,0.00,,,0.00,,2013-10-08 13:52:00,
2013-10-08 08:02:00,41.0,18.0,-100.00,South,189,6.0,10.0,39,0.00,,,0.00,,2013-10-08 14:02:00,
2013-10-08 09:53:00,44.0,20.0,-100.00,South,174,5.0,6.0,39,-99.99,,,-99.99,,2013-10-08 15:53:00,
2013-10-08 10:03:00,44.0,20.0,-100.00,South,174,5.0,6.0,39,-99.99,,,-99.99,,2013-10-08 16:03:00,
2013-10-08 10:13:00,44.0,20.0,-100.00,South,174,5.0,6.0,39,-99.99,,,-99.99,,2013-10-08 16:13:00,
2013-10-08 10:53:00,44.0,22.0,-100.00,SW,218,9.0,14.0,42,0.01,,,-99.99,,2013-10-08 16:53:00,
2013-10-08 11:03:00,44.0,22.0,-100.00,SW,218,9.0,14.0,42,0.01,,,-99.99,,2013-10-08 17:03:00,
2013-10-08 11:12:00,44.0,22.0,-100.00,SW,218,9.0,14.0,42,0.01,,,-99.99,,2013-10-08 17:12:00,
2013-10-08 11:52:00,42.0,24.0,-100.00,SSW,198,14.0,23.0,49,0.00,,,-99.99,,2013-10-08 17:52:00,
2013-10-08 12:02:00,42.0,24.0,-100.00,SSW,198,14.0,23.0,49,0.00,,,-99.99,,2013-10-08 18:02:00,
2013-10-08 12:11:00,42.0,24.0,-100.00,SSW,198,14.0,23.0,49,0.00,,,-99.99,,2013-10-08 18:11:00,
2013-10-08 13:52:00,43.0,24.0,-100.00,WSW,238,10.0,17.0,46,-99.99,,,-99.99,,2013-10-08 19:52:00,
2013-10-08 14:02:00,43.0,24.0,-100.00,WSW,238,10.0,17.0,46,-99.99,,,-99.99,,2013-10-08 20:02:00,
2013-10-08 14:12:00,43.0,24.0,-100.00,WSW,238,10.0,17.0,46,-99.99,,,-99.99,,2013-10-08 20:12:00,
2013-10-08 15:54:00,42.0,16.0,-100.00,SW,221,7.0,15.0,34,-99.99,,,-99.99,,2013-10-08 21:54:00,
2013-10-08 16:03:00,42.0,16.0,-100.00,SW,221,7.0,15.0,34,-99.99,,,-99.99,,2013-10-08 22:03:00,
2013-10-08 16:13:00,42.0,16.0,-100.00,SW,221,7.0,15.0,34,-99.99,,,-99.99,,2013-10-08 22:13:00,
2013-10-08 16:57:00,44.0,18.0,-100.00,WSW,254,10.0,16.0,35,0.01,,,0.00,,2013-10-08 22:57:00,
2013-10-08 17:03:00,44.0,18.0,-100.00,WSW,254,10.0,16.0,35,0.01,,,0.00,,2013-10-08 23:03:00,
2013-10-08 17:12:00,44.0,18.0,-100.00,WSW,254,10.0,16.0,35,0.01,,,0.00,,2013-10-08 23:12:00,
2013-10-08 17:52:00,45.0,20.0,-100.00,West,279,4.0,8.0,36,0.00,,,-99.99,,2013-10-08 23:52:00,
2013-10-08 18:02:00,45.0,20.0,-100.00,West,279,4.0,8.0,36,0.00,,,-99.99,,2013-10-09 00:02:00,
2013-10-08 18:12:00,45.0,20.0,-100.00,West,279,4.0,8.0,36,0.00,,,-99.99,,2013-10-09 00:12:00,
2013-10-08 18:52:00,40.0,15.0,-100.00,WSW,238,4.0,8.0,35,0.00,,,-99.99,,2013-10-09 00:52:00,
2013-10-08 19:01:00,40.0,15.0,-100.00,WSW,238,4.0,8.0,35,0.00,,,-99.99,,2013-10-09 01:01:00,
2013-10-08 19:12:00,40.0,15.0,-100.00,WSW,238,4.0,8.0,35,0.00,,,-99.99,,2013-10-09 01:12:00,
2013-10-08 19:52:00,31.0,21.0,-100.00,East,91,0.0,1.0,65,0.00,,,-99.99,,2013-10-09 01:52:00,
2013-10-08 20:02:00,31.0,21.0,-100.00,East,91,0.0,1.0,65,0.00,,,-99.99,,2013-10-09 02:02:00,
2013-10-08 20:12:00,31.0,21.0,-100.00,East,91,0.0,1.0,65,0.00,,,-99.99,,2013-10-09 02:12:00,
2013-10-08 20:52:00,28.0,22.0,-100.00,WSW,237,0.0,1.0,78,0.00,,,-99.99,,2013-10-09 02:52:00,
2013-10-08 21:02:00,28.0,22.0,-100.00,WSW,237,0.0,1.0,78,0.00,,,-99.99,,2013-10-09 03:02:00,
2013-10-08 21:11:00,28.0,22.0,-100.00,WSW,237,0.0,1.0,78,0.00,,,-99.99,,2013-10-09 03:11:00,
2013-10-08 21:54:00,28.0,20.0,-100.00,ESE,102,2.0,3.0,70,-99.99,,,-99.99,,2013-10-09 03:54:00,
2013-10-08 22:05:00,28.0,20.0,-100.00,ESE,102,2.0,3.0,70,-99.99,,,-99.99,,2013-10-09 04:05:00,
2013-10-08 22:14:00,28.0,20.0,-100.00,ESE,102,2.0,3.0,70,-99.99,,,-99.99,,2013-10-09 04:14:00,
2013-10-08 22:54:00,27.0,21.0,-100.00,ESE,109,3.0,4.0,80,0.01,,,-99.99,,2013-10-09 04:54:00,
2013-10-08 23:04:00,27.0,21.0,-100.00,ESE,109,3.0,4.0,80,0.01,,,-99.99,,2013-10-09 05:04:00,
2013-10-08 23:13:00,27.0,21.0,-100.00,ESE,109,3.0,4.0,80,0.01,,,-99.99,,2013-10-09 05:13:00,
2013-10-08 23:52:00,25.0,22.0,-100.00,SE,135,3.0,4.0,87,0.00,,,-99.99,,2013-10-09 05:52:00,